Time;durP1;ratioP1;P1;durP2;ratioP2;P2;SDS_P1;SDS_P2;PMS_P1;PMS_P2;Temp;Humidity;BMP_temperature;BMP_pressure;BME280_temperature;BME280_humidity;BME280_pressure;Samples;Min_cycle;Max_cycle;Signal;HPM_P1;HPM_P2
2023/06/27 00:00:53;;;;;;;4.77;1.93;;;13.10;79.90;;;;;;5006724;28;20238;-68
2023/06/27 00:03:19;;;;;;;4.07;2.00;;;13.10;79.60;;;;;;4991433;28;20287;-68
2023/06/27 00:05:46;;;;;;;7.03;2.20;;;13.00;79.50;;;;;;5003298;28;20040;-68
2023/06/27 00:08:12;;;;;;;6.23;2.23;;;13.00;79.80;;;;;;5003143;28;20049;-69
2023/06/27 00:10:38;;;;;;;6.37;2.10;;;13.00;79.80;;;;;;4989748;28;20363;-68
2023/06/27 00:13:04;;;;;;;5.20;1.80;;;12.90;80.50;;;;;;5005249;28;20423;-68
2023/06/27 00:15:34;;;;;;;4.03;1.80;;;12.90;80.40;;;;;;5005854;28;20135;-68
2023/06/27 00:17:59;;;;;;;4.40;1.70;;;12.90;80.50;;;;;;4989707;28;20041;-69
2023/06/27 00:20:25;;;;;;;5.83;2.07;;;12.90;80.10;;;;;;4998269;28;20870;-68
2023/06/27 00:22:51;;;;;;;5.30;2.30;;;12.80;80.80;;;;;;5004601;28;20038;-68
2023/06/27 00:25:17;;;;;;;4.73;2.20;;;12.80;81.40;;;;;;5004505;28;20129;-68
2023/06/27 00:27:43;;;;;;;5.43;2.10;;;12.70;81.90;;;;;;5003981;28;20046;-68
2023/06/27 00:30:09;;;;;;;4.03;2.60;;;12.70;81.70;;;;;;4989100;28;20995;-68
2023/06/27 00:32:35;;;;;;;6.67;2.47;;;12.70;81.30;;;;;;5006140;28;20060;-68
2023/06/27 00:35:00;;;;;;;7.20;2.20;;;12.70;81.80;;;;;;4990601;28;20045;-68
2023/06/27 00:37:26;;;;;;;2.87;1.73;;;12.60;81.70;;;;;;5005828;28;20161;-68
2023/06/27 00:39:51;;;;;;;4.20;1.73;;;12.60;81.60;;;;;;5002173;28;20041;-68
2023/06/27 00:42:17;;;;;;;6.13;2.50;;;12.60;81.50;;;;;;4986101;28;20037;-68
2023/06/27 00:44:43;;;;;;;5.60;2.23;;;12.50;82.10;;;;;;4998269;28;20038;-68
2023/06/27 00:47:09;;;;;;;3.80;2.27;;;12.50;82.20;;;;;;5005120;28;20038;-68
2023/06/27 00:49:34;;;;;;;4.87;2.50;;;12.50;82.40;;;;;;5006211;28;20042;-68
2023/06/27 00:52:01;;;;;;;5.87;2.80;;;12.50;82.40;;;;;;5006071;28;20158;-68
2023/06/27 00:54:27;;;;;;;5.27;2.43;;;12.50;83.30;;;;;;5004881;28;20129;-68
2023/06/27 00:56:53;;;;;;;5.67;2.27;;;12.50;83.10;;;;;;5005776;28;20439;-68
2023/06/27 00:59:20;;;;;;;5.37;2.10;;;12.50;83.90;;;;;;5002592;28;20132;-68
2023/06/27 01:01:46;;;;;;;3.67;2.23;;;12.50;83.20;;;;;;4989238;28;20356;-68
2023/06/27 01:04:13;;;;;;;7.10;2.93;;;12.50;83.00;;;;;;4988481;28;20371;-68
2023/06/27 01:07:02;;;;;;;6.63;2.40;;;12.50;83.50;;;;;;5003946;28;20037;-68
2023/06/27 01:09:41;;;;;;;6.35;2.45;;;12.50;83.30;;;;;;5002841;28;20501;-68
2023/06/27 01:12:40;;;;;;;4.83;2.53;;;12.40;83.40;;;;;;4989496;28;20434;-68
2023/06/27 01:15:07;;;;;;;7.73;2.83;;;12.40;83.00;;;;;;4996233;28;20289;-68
2023/06/27 01:17:36;;;;;;;7.00;3.03;;;12.40;83.80;;;;;;4988744;28;20289;-68
2023/06/27 01:20:02;;;;;;;8.35;2.67;;;12.50;83.60;;;;;;4988678;28;20293;-68
2023/06/27 01:22:35;;;;;;;7.78;3.38;;;12.50;83.40;;;;;;5005365;28;20041;-68
2023/06/27 01:25:02;;;;;;;6.90;2.83;;;12.50;83.30;;;;;;5004453;28;20101;-68
2023/06/27 01:27:29;;;;;;;6.47;2.93;;;12.40;83.40;;;;;;5005497;28;20285;-68
2023/06/27 01:29:55;;;;;;;5.73;3.10;;;12.40;83.40;;;;;;4984587;28;20305;-68
2023/06/27 01:32:46;;;;;;;7.10;3.23;;;12.40;83.50;;;;;;4988761;28;20292;-68
2023/06/27 01:36:17;;;;;;;5.30;3.30;;;12.50;84.00;;;;;;4997233;28;20312;-68
2023/06/27 01:39:03;;;;;;;5.53;3.27;;;12.50;83.70;;;;;;5001022;28;20045;-68
2023/06/27 01:41:31;;;;;;;5.13;3.38;;;12.40;83.40;;;;;;5005335;28;20324;-68
2023/06/27 01:44:01;;;;;;;6.10;3.70;;;12.40;83.30;;;;;;4987423;28;20124;-68
2023/06/27 01:46:27;;;;;;;8.17;3.43;;;12.40;83.40;;;;;;5004989;28;20269;-68
2023/06/27 01:48:55;;;;;;;4.93;3.20;;;12.40;83.30;;;;;;4988745;28;20636;-68
2023/06/27 01:51:20;;;;;;;4.00;2.80;;;12.40;83.90;;;;;;4988322;28;20276;-68
2023/06/27 01:53:46;;;;;;;5.80;3.13;;;12.40;83.70;;;;;;5004132;28;20296;-68
2023/06/27 01:56:12;;;;;;;8.63;3.53;;;12.30;83.50;;;;;;5005075;28;20225;-68
2023/06/27 01:58:39;;;;;;;5.82;3.72;;;12.30;83.70;;;;;;5004976;28;20050;-68
2023/06/27 02:01:05;;;;;;;11.32;4.28;;;12.30;83.50;;;;;;5004398;28;20070;-68
2023/06/27 02:03:30;;;;;;;6.63;3.73;;;12.20;83.40;;;;;;5004438;28;20084;-68
2023/06/27 02:05:56;;;;;;;7.50;3.10;;;12.20;83.50;;;;;;5005546;28;20034;-68
2023/06/27 02:08:22;;;;;;;6.03;3.33;;;12.20;83.40;;;;;;5002836;28;20038;-68
2023/06/27 02:10:47;;;;;;;7.17;3.43;;;12.10;83.20;;;;;;5004222;28;20382;-68
2023/06/27 02:13:13;;;;;;;5.77;3.37;;;12.10;83.50;;;;;;5006069;28;20037;-68
2023/06/27 02:15:40;;;;;;;6.60;3.43;;;12.10;83.30;;;;;;5006214;28;20077;-68
2023/06/27 02:18:05;;;;;;;6.63;3.10;;;12.10;83.40;;;;;;4989780;28;20324;-68
2023/06/27 02:20:31;;;;;;;6.13;3.30;;;12.00;83.30;;;;;;5006461;28;20395;-68
2023/06/27 02:22:57;;;;;;;6.60;3.80;;;12.00;83.20;;;;;;5006281;28;20572;-68
2023/06/27 02:25:22;;;;;;;7.60;3.30;;;12.00;83.00;;;;;;4989729;28;20375;-68
2023/06/27 02:27:48;;;;;;;6.13;3.67;;;11.90;83.10;;;;;;5007453;28;20038;-68
2023/06/27 02:30:14;;;;;;;7.93;3.00;;;11.90;83.20;;;;;;5008543;28;20041;-68
2023/06/27 02:32:39;;;;;;;5.70;3.57;;;11.90;83.10;;;;;;5006602;28;20041;-68
2023/06/27 02:35:06;;;;;;;5.93;3.27;;;11.90;82.90;;;;;;5004461;28;20691;-68
2023/06/27 02:37:31;;;;;;;8.00;3.40;;;11.90;83.10;;;;;;4991596;28;20069;-68
2023/06/27 02:39:57;;;;;;;9.60;3.03;;;11.90;83.00;;;;;;5000872;28;20079;-68
2023/06/27 02:42:23;;;;;;;7.03;3.30;;;11.90;83.00;;;;;;4992935;28;20038;-68
2023/06/27 02:44:48;;;;;;;7.07;3.67;;;11.90;83.20;;;;;;5008523;28;20040;-68
2023/06/27 02:47:15;;;;;;;7.77;3.60;;;11.90;83.30;;;;;;4988135;28;20052;-68
2023/06/27 02:49:42;;;;;;;6.50;3.40;;;11.90;83.10;;;;;;5004123;28;20501;-68
2023/06/27 02:52:08;;;;;;;7.53;3.58;;;11.90;82.90;;;;;;5021565;28;20293;-68
2023/06/27 02:54:34;;;;;;;6.78;3.17;;;11.90;83.00;;;;;;5003469;28;20045;-68
2023/06/27 02:56:59;;;;;;;5.63;3.17;;;12.00;82.90;;;;;;5002923;28;20049;-68
2023/06/27 02:59:25;;;;;;;6.17;3.17;;;11.90;83.00;;;;;;4990585;28;20100;-68
2023/06/27 03:01:51;;;;;;;9.90;3.73;;;11.90;82.80;;;;;;5007518;28;20065;-68
2023/06/27 03:04:23;;;;;;;6.30;3.40;;;11.90;82.90;;;;;;5006893;28;20056;-68
2023/06/27 03:06:49;;;;;;;8.63;3.67;;;11.90;83.00;;;;;;5007220;28;20144;-68
2023/06/27 03:09:16;;;;;;;7.63;4.00;;;11.90;82.90;;;;;;5004705;28;20116;-68
2023/06/27 03:11:42;;;;;;;7.95;3.65;;;11.90;83.00;;;;;;5000048;28;20080;-68
2023/06/27 03:14:08;;;;;;;7.20;3.70;;;11.90;83.20;;;;;;5005383;28;20445;-68
2023/06/27 03:16:33;;;;;;;8.20;4.30;;;11.90;83.20;;;;;;5003795;28;20497;-68
2023/06/27 03:18:59;;;;;;;8.80;4.07;;;11.90;83.30;;;;;;5005502;28;20496;-68
2023/06/27 03:21:25;;;;;;;11.73;3.60;;;11.90;83.50;;;;;;4990707;28;20120;-68
2023/06/27 03:23:51;;;;;;;9.63;3.53;;;11.90;83.60;;;;;;4999827;28;20038;-68
2023/06/27 03:26:16;;;;;;;6.70;3.33;;;11.90;84.30;;;;;;4987996;28;20092;-68
2023/06/27 03:28:42;;;;;;;7.07;3.50;;;12.00;84.00;;;;;;4996995;28;20505;-68
2023/06/27 03:31:08;;;;;;;8.47;3.50;;;11.90;83.80;;;;;;5006316;28;20670;-68
2023/06/27 03:33:34;;;;;;;4.73;3.30;;;12.00;83.70;;;;;;5004594;28;20634;-68
2023/06/27 03:35:59;;;;;;;8.27;3.73;;;12.00;83.80;;;;;;4999086;28;20042;-68
2023/06/27 03:38:25;;;;;;;6.43;4.10;;;12.00;83.90;;;;;;5000230;28;20418;-68
2023/06/27 03:40:51;;;;;;;6.40;3.90;;;12.00;84.10;;;;;;5006041;28;20629;-68
2023/06/27 03:43:16;;;;;;;8.47;4.13;;;12.10;83.90;;;;;;5005972;28;20251;-68
2023/06/27 03:45:42;;;;;;;8.50;4.00;;;12.10;84.10;;;;;;4987710;28;20099;-68
2023/06/27 03:48:08;;;;;;;9.10;4.60;;;12.20;84.20;;;;;;4987626;28;20589;-68
2023/06/27 03:50:34;;;;;;;6.60;4.20;;;12.20;84.40;;;;;;4998312;28;20044;-68
2023/06/27 03:53:03;;;;;;;7.00;3.67;;;12.20;84.30;;;;;;4989700;28;20045;-68
2023/06/27 03:55:29;;;;;;;7.67;3.60;;;12.30;84.60;;;;;;4989949;28;20303;-68
2023/06/27 03:57:54;;;;;;;7.47;3.90;;;12.40;84.80;;;;;;4986323;28;20304;-68
2023/06/27 04:00:21;;;;;;;9.93;4.03;;;12.40;84.60;;;;;;5003819;28;20798;-68
2023/06/27 04:02:46;;;;;;;9.83;4.33;;;12.50;84.60;;;;;;5005905;28;20052;-68
2023/06/27 04:05:12;;;;;;;9.13;4.20;;;12.50;84.50;;;;;;5006050;28;20364;-68
2023/06/27 04:07:40;;;;;;;9.03;4.07;;;12.60;84.40;;;;;;5005686;28;20441;-68
2023/06/27 04:10:06;;;;;;;7.23;3.53;;;12.60;84.50;;;;;;4988432;28;20096;-68
2023/06/27 04:12:32;;;;;;;9.03;5.40;;;12.70;84.80;;;;;;5006127;28;20368;-68
2023/06/27 04:14:58;;;;;;;9.83;4.13;;;12.80;84.70;;;;;;4989375;28;20288;-68
2023/06/27 04:17:23;;;;;;;10.57;4.83;;;12.90;84.60;;;;;;4989389;28;20089;-68
2023/06/27 04:19:49;;;;;;;7.80;3.37;;;13.00;84.80;;;;;;5006151;28;20046;-68
2023/06/27 04:22:15;;;;;;;9.67;4.77;;;13.10;84.70;;;;;;5006718;28;20049;-68
2023/06/27 04:24:40;;;;;;;8.13;3.57;;;13.20;84.70;;;;;;5005071;28;20050;-68
2023/06/27 04:27:08;;;;;;;7.43;3.40;;;13.30;84.50;;;;;;4996934;28;20049;-68
2023/06/27 04:29:34;;;;;;;8.67;3.70;;;13.30;84.30;;;;;;5002265;28;20050;-68
2023/06/27 04:32:00;;;;;;;6.23;3.83;;;13.40;84.20;;;;;;5005715;28;21139;-68
2023/06/27 04:34:26;;;;;;;10.10;3.10;;;13.50;84.40;;;;;;4992939;28;20293;-68
2023/06/27 04:36:52;;;;;;;7.90;4.03;;;13.60;84.70;;;;;;4989332;28;20044;-68
2023/06/27 04:39:18;;;;;;;8.03;3.30;;;14.10;85.50;;;;;;4987521;28;20540;-68
2023/06/27 04:41:43;;;;;;;7.30;3.73;;;15.00;84.80;;;;;;4984364;28;20030;-69
2023/06/27 04:44:09;;;;;;;8.87;3.50;;;15.90;82.50;;;;;;5002161;28;20122;-68
2023/06/27 04:46:35;;;;;;;7.83;3.20;;;16.70;79.80;;;;;;4999991;28;20168;-68
2023/06/27 04:49:00;;;;;;;4.53;2.70;;;17.20;77.90;;;;;;5007485;28;20107;-68
2023/06/27 04:51:27;;;;;;;5.83;2.67;;;17.80;77.20;;;;;;5001984;28;20092;-68
2023/06/27 04:53:53;;;;;;;7.17;1.93;;;18.60;74.30;;;;;;5007571;28;20477;-68
2023/06/27 04:56:19;;;;;;;6.33;2.03;;;19.10;72.60;;;;;;5004222;28;20292;-68
2023/06/27 04:58:45;;;;;;;5.80;1.93;;;19.70;71.40;;;;;;4991545;28;20323;-69
2023/06/27 05:01:11;;;;;;;5.70;1.60;;;20.30;69.30;;;;;;4989882;28;20280;-70
2023/06/27 05:03:37;;;;;;;5.63;1.87;;;21.00;66.80;;;;;;4993445;28;20083;-70
2023/06/27 05:06:06;;;;;;;7.20;2.03;;;21.60;64.20;;;;;;4993511;28;20289;-70
2023/06/27 05:08:33;;;;;;;6.40;1.63;;;22.10;63.00;;;;;;5008664;28;20296;-69
2023/06/27 05:10:58;;;;;;;5.33;1.73;;;22.70;61.90;;;;;;4992071;28;20312;-71
2023/06/27 05:13:24;;;;;;;5.83;1.57;;;23.20;60.10;;;;;;4993934;28;20349;-70
2023/06/27 05:15:50;;;;;;;5.40;1.33;;;23.50;58.90;;;;;;5006279;28;20405;-70
2023/06/27 05:18:15;;;;;;;5.43;1.17;;;23.90;57.60;;;;;;5006927;28;20077;-70
2023/06/27 05:20:42;;;;;;;3.47;1.20;;;24.40;56.90;;;;;;4990402;28;20030;-70
2023/06/27 05:23:08;;;;;;;6.53;1.30;;;24.60;54.80;;;;;;4989988;28;20052;-70
2023/06/27 05:25:34;;;;;;;7.70;1.40;;;24.70;54.70;;;;;;4990249;28;20046;-70
2023/06/27 05:28:01;;;;;;;5.17;1.10;;;24.70;54.20;;;;;;5003179;28;20054;-70
2023/06/27 05:30:28;;;;;;;5.23;1.37;;;24.70;53.60;;;;;;5006160;28;20117;-70
2023/06/27 05:32:54;;;;;;;4.97;1.13;;;24.90;53.80;;;;;;5005730;28;20046;-69
2023/06/27 05:35:20;;;;;;;5.33;1.30;;;24.90;53.80;;;;;;5006485;28;20071;-70
2023/06/27 05:37:46;;;;;;;6.37;0.93;;;24.70;53.30;;;;;;5005071;28;20097;-70
2023/06/27 05:40:12;;;;;;;7.00;1.20;;;24.90;53.50;;;;;;4989725;28;20456;-70
2023/06/27 05:42:39;;;;;;;2.80;0.63;;;25.20;52.90;;;;;;5007184;28;20042;-70
2023/06/27 05:45:05;;;;;;;4.10;0.93;;;25.30;51.80;;;;;;5006645;28;20104;-70
2023/06/27 05:47:31;;;;;;;7.97;1.00;;;25.40;51.80;;;;;;5007435;28;20545;-70
2023/06/27 05:49:56;;;;;;;4.87;1.00;;;25.60;50.70;;;;;;5002332;28;20121;-70
2023/06/27 05:52:22;;;;;;;3.40;0.63;;;25.80;50.50;;;;;;4986225;28;20137;-70
2023/06/27 05:54:49;;;;;;;5.93;1.03;;;25.60;49.80;;;;;;5006725;28;20494;-70
2023/06/27 05:57:15;;;;;;;5.43;0.80;;;25.30;50.00;;;;;;5006807;28;20065;-70
2023/06/27 05:59:40;;;;;;;5.20;0.80;;;24.80;50.80;;;;;;4998631;28;20038;-70
2023/06/27 06:02:06;;;;;;;4.57;0.80;;;24.20;52.10;;;;;;4988591;28;20030;-70
2023/06/27 06:04:32;;;;;;;7.07;0.80;;;24.00;51.80;;;;;;4993365;28;20077;-70
2023/06/27 06:07:03;;;;;;;4.40;0.60;;;23.70;51.20;;;;;;5005913;28;20042;-70
2023/06/27 06:09:30;;;;;;;4.23;0.60;;;24.00;51.00;;;;;;4993935;28;20053;-70
2023/06/27 06:11:56;;;;;;;4.83;0.80;;;24.50;50.70;;;;;;4994364;28;20050;-70
2023/06/27 06:14:22;;;;;;;4.63;0.53;;;24.80;51.10;;;;;;4993781;28;20053;-70
2023/06/27 06:16:48;;;;;;;2.80;0.60;;;25.30;48.30;;;;;;5010475;28;20046;-70
2023/06/27 06:19:14;;;;;;;5.83;0.50;;;25.20;46.80;;;;;;5009859;28;20050;-70
2023/06/27 06:21:40;;;;;;;5.43;0.67;;;24.90;46.30;;;;;;5010469;28;20042;-70
2023/06/27 06:24:08;;;;;;;3.33;0.80;;;24.80;46.00;;;;;;5010120;28;20062;-70
2023/06/27 06:26:35;;;;;;;5.60;0.70;;;24.70;46.00;;;;;;4984220;28;20152;-70
2023/06/27 06:29:01;;;;;;;4.13;0.73;;;24.50;46.40;;;;;;5009045;28;20370;-70
2023/06/27 06:31:27;;;;;;;5.80;0.77;;;24.30;45.40;;;;;;5008160;28;20041;-70
2023/06/27 06:33:53;;;;;;;3.77;0.60;;;24.20;46.40;;;;;;5010436;28;20052;-70
2023/06/27 06:36:19;;;;;;;3.93;0.50;;;23.90;46.50;;;;;;5009786;28;20046;-70
2023/06/27 06:38:45;;;;;;;2.70;0.33;;;23.30;47.30;;;;;;4993810;28;20065;-69
2023/06/27 06:41:10;;;;;;;2.87;0.50;;;22.80;47.00;;;;;;5010190;28;20045;-70
2023/06/27 06:43:37;;;;;;;4.67;0.60;;;22.20;47.90;;;;;;5010472;28;20088;-70
2023/06/27 06:46:03;;;;;;;3.13;0.50;;;21.70;49.50;;;;;;5005816;28;20046;-70
2023/06/27 06:48:29;;;;;;;5.70;0.60;;;21.40;51.30;;;;;;5007209;28;20056;-70
2023/06/27 06:50:55;;;;;;;5.27;0.70;;;21.30;52.10;;;;;;4995823;28;20135;-69
2023/06/27 06:53:20;;;;;;;3.90;0.70;;;21.30;52.80;;;;;;5012491;28;20132;-70
2023/06/27 06:55:46;;;;;;;6.03;0.77;;;21.30;53.60;;;;;;5002016;28;20065;-69
2023/06/27 06:58:12;;;;;;;7.70;0.80;;;21.40;53.30;;;;;;5012499;28;20077;-70
2023/06/27 07:00:38;;;;;;;5.93;0.83;;;21.30;53.90;;;;;;5008430;28;20448;-70
2023/06/27 07:03:08;;;;;;;6.50;0.90;;;21.30;54.60;;;;;;5009730;28;20438;-70
2023/06/27 07:05:35;;;;;;;5.73;1.00;;;21.40;54.90;;;;;;4993659;28;20042;-69
2023/06/27 07:08:04;;;;;;;5.00;0.60;;;21.40;55.20;;;;;;5001790;28;20070;-70
2023/06/27 07:10:31;;;;;;;3.67;0.70;;;21.50;54.50;;;;;;5011192;28;20375;-70
2023/06/27 07:12:57;;;;;;;6.13;0.90;;;21.60;54.60;;;;;;5007200;28;20033;-70
2023/06/27 07:15:23;;;;;;;7.40;0.70;;;21.50;55.30;;;;;;5010800;28;20046;-70
2023/06/27 07:17:52;;;;;;;5.63;1.10;;;21.40;55.10;;;;;;5011443;28;20038;-69
2023/06/27 07:20:20;;;;;;;4.53;0.63;;;21.30;55.10;;;;;;5006177;28;20056;-70
2023/06/27 07:22:46;;;;;;;4.57;0.90;;;21.00;55.10;;;;;;4988849;28;20046;-70
2023/06/27 07:25:12;;;;;;;6.87;0.87;;;20.80;56.20;;;;;;4994983;28;20050;-70
2023/06/27 07:27:38;;;;;;;5.17;0.90;;;20.70;56.80;;;;;;5011235;28;20038;-70
2023/06/27 07:30:04;;;;;;;5.53;1.30;;;20.70;57.40;;;;;;5008364;28;20057;-70
2023/06/27 07:32:30;;;;;;;4.20;0.73;;;20.80;57.70;;;;;;5003589;28;20045;-70
2023/06/27 07:34:56;;;;;;;5.27;0.77;;;20.80;57.30;;;;;;5011680;28;20050;-69
2023/06/27 07:37:21;;;;;;;4.23;0.90;;;20.90;57.70;;;;;;5008381;28;20124;-70
2023/06/27 07:39:47;;;;;;;5.43;1.00;;;20.90;57.90;;;;;;5006659;28;20512;-70
2023/06/27 07:42:13;;;;;;;9.97;1.30;;;20.90;57.50;;;;;;5008164;28;20503;-70
2023/06/27 07:44:38;;;;;;;5.90;0.83;;;20.90;58.10;;;;;;5000604;28;20038;-70
2023/06/27 07:47:04;;;;;;;6.13;0.80;;;21.10;58.10;;;;;;4991588;28;20035;-70
2023/06/27 07:49:33;;;;;;;6.73;1.10;;;21.20;58.50;;;;;;5005020;28;20033;-70
2023/06/27 07:51:59;;;;;;;5.27;0.80;;;21.30;59.10;;;;;;4994087;28;20117;-70
2023/06/27 07:54:26;;;;;;;7.90;1.40;;;21.50;59.70;;;;;;5009667;28;20133;-70
2023/06/27 07:56:54;;;;;;;5.77;0.80;;;21.70;58.80;;;;;;4993670;28;20045;-70
2023/06/27 07:59:21;;;;;;;5.40;1.07;;;21.90;57.90;;;;;;4993049;28;20053;-70
2023/06/27 08:01:46;;;;;;;7.03;0.87;;;22.00;57.40;;;;;;5009663;28;20065;-70
2023/06/27 08:04:12;;;;;;;6.03;1.00;;;21.80;58.00;;;;;;5009367;28;20504;-69
2023/06/27 08:06:38;;;;;;;6.30;0.90;;;21.90;58.20;;;;;;4999924;28;20042;-69
2023/06/27 08:09:04;;;;;;;5.57;1.00;;;22.10;57.80;;;;;;4990647;28;20053;-69
2023/06/27 08:11:29;;;;;;;5.97;0.97;;;22.20;57.00;;;;;;5007099;28;20050;-70
2023/06/27 08:13:55;;;;;;;8.03;1.10;;;22.40;55.40;;;;;;5009526;28;20046;-70
2023/06/27 08:16:21;;;;;;;6.40;0.90;;;22.40;55.10;;;;;;5005246;28;20108;-70
2023/06/27 08:18:47;;;;;;;7.50;0.63;;;22.50;55.50;;;;;;5009382;28;20038;-70
2023/06/27 08:21:13;;;;;;;3.87;0.60;;;22.70;55.00;;;;;;4993698;28;20041;-70
2023/06/27 08:23:39;;;;;;;4.93;0.80;;;23.00;54.60;;;;;;5008507;28;20385;-70
2023/06/27 08:26:05;;;;;;;5.27;0.60;;;23.20;53.80;;;;;;4987586;28;20050;-70
2023/06/27 08:28:31;;;;;;;3.50;0.83;;;23.30;53.00;;;;;;4991931;28;20050;-70
2023/06/27 08:30:57;;;;;;;3.37;0.60;;;23.20;52.30;;;;;;4996657;28;20136;-70
2023/06/27 08:33:23;;;;;;;5.40;0.67;;;22.90;51.90;;;;;;4997090;28;20049;-70
2023/06/27 08:35:49;;;;;;;4.50;0.87;;;22.60;52.40;;;;;;4997707;28;20038;-70
2023/06/27 08:38:15;;;;;;;4.50;0.83;;;22.40;53.60;;;;;;4990625;28;20053;-70
2023/06/27 08:40:43;;;;;;;4.33;0.83;;;22.30;54.20;;;;;;5007924;28;20037;-69
2023/06/27 08:43:10;;;;;;;6.67;0.70;;;22.30;54.40;;;;;;5007712;28;20046;-69
2023/06/27 08:45:37;;;;;;;7.40;0.97;;;22.30;54.80;;;;;;5007644;28;20084;-70
2023/06/27 08:48:06;;;;;;;5.20;0.70;;;22.40;54.80;;;;;;5007653;28;20042;-70
2023/06/27 08:50:34;;;;;;;5.10;0.80;;;22.40;54.30;;;;;;5008054;28;20046;-70
2023/06/27 08:53:07;;;;;;;6.00;0.80;;;22.50;54.00;;;;;;5001471;28;20490;-70
2023/06/27 08:55:44;;;;;;;4.43;0.67;;;22.40;54.60;;;;;;5005012;28;20034;-70
2023/06/27 08:58:15;;;;;;;6.00;0.80;;;22.30;54.70;;;;;;5007419;28;20050;-70
2023/06/27 09:00:45;;;;;;;5.73;0.73;;;22.40;55.30;;;;;;4995949;28;20052;-69
2023/06/27 09:03:11;;;;;;;4.03;0.67;;;22.20;54.60;;;;;;5007788;28;20046;-69
2023/06/27 09:05:37;;;;;;;5.50;0.90;;;22.00;54.10;;;;;;5005788;28;20052;-69
2023/06/27 09:08:03;;;;;;;10.10;1.10;;;21.90;55.20;;;;;;4998566;28;20041;-69
2023/06/27 09:10:29;;;;;;;7.07;0.80;;;21.80;54.70;;;;;;5006413;28;20097;-69
2023/06/27 09:12:56;;;;;;;6.73;0.80;;;21.80;54.90;;;;;;4986200;28;20050;-69
2023/06/27 09:15:22;;;;;;;4.53;0.80;;;21.90;55.50;;;;;;5005509;28;20121;-70
2023/06/27 09:17:48;;;;;;;3.37;0.77;;;22.20;54.80;;;;;;4990978;28;20037;-69
2023/06/27 09:20:18;;;;;;;5.07;0.80;;;22.20;53.70;;;;;;5006789;28;20108;-69
2023/06/27 09:22:44;;;;;;;5.07;0.67;;;22.20;53.60;;;;;;5007696;28;20064;-69
2023/06/27 09:25:11;;;;;;;5.33;1.13;;;22.10;53.60;;;;;;5005800;28;20050;-69
2023/06/27 09:27:37;;;;;;;7.47;0.70;;;22.10;53.80;;;;;;4980893;28;20536;-69
2023/06/27 09:30:07;;;;;;;3.80;0.67;;;22.20;52.70;;;;;;5002853;28;20077;-69
2023/06/27 09:32:34;;;;;;;4.10;0.50;;;22.10;52.80;;;;;;5000263;28;20096;-69
2023/06/27 09:35:03;;;;;;;5.40;0.50;;;22.10;52.00;;;;;;5006659;28;20615;-69
2023/06/27 09:37:33;;;;;;;5.67;0.80;;;22.10;53.10;;;;;;5006964;28;20108;-69
2023/06/27 09:40:19;;;;;;;5.90;0.60;;;22.30;51.90;;;;;;5007074;28;20100;-69
2023/06/27 09:42:52;;;;;;;4.77;0.70;;;22.30;50.40;;;;;;5008178;28;20104;-69
2023/06/27 09:45:19;;;;;;;3.03;0.60;;;22.40;50.50;;;;;;4999400;28;20038;-69
2023/06/27 09:47:48;;;;;;;5.80;1.00;;;22.50;51.00;;;;;;4995209;28;20426;-69
2023/06/27 09:50:14;;;;;;;6.87;0.90;;;22.70;49.70;;;;;;5006589;28;20061;-69
2023/06/27 09:52:40;;;;;;;4.50;1.10;;;22.90;49.40;;;;;;5011171;28;20132;-69
2023/06/27 09:55:18;;;;;;;3.37;0.60;;;23.00;50.10;;;;;;5011082;28;20145;-69
2023/06/27 09:57:44;;;;;;;3.67;0.63;;;22.90;48.60;;;;;;4993910;28;20331;-69
2023/06/27 10:00:11;;;;;;;3.80;0.70;;;22.80;49.90;;;;;;5010689;28;20049;-69
2023/06/27 10:02:37;;;;;;;2.30;0.50;;;22.60;48.70;;;;;;5006339;28;20049;-69
2023/06/27 10:05:03;;;;;;;5.10;0.50;;;22.50;50.40;;;;;;5006903;28;20478;-69
2023/06/27 10:07:32;;;;;;;4.07;0.80;;;22.50;50.60;;;;;;5011086;28;20088;-69
2023/06/27 10:09:58;;;;;;;3.77;0.40;;;22.70;51.40;;;;;;5011026;28;21002;-69
2023/06/27 10:12:24;;;;;;;5.43;0.87;;;23.00;49.80;;;;;;5005637;28;20042;-69
2023/06/27 10:14:50;;;;;;;4.13;0.73;;;23.10;49.70;;;;;;5010922;28;20099;-69
2023/06/27 10:17:18;;;;;;;4.13;0.63;;;23.20;48.90;;;;;;5010603;28;20042;-69
2023/06/27 10:19:45;;;;;;;3.63;0.80;;;23.40;49.10;;;;;;4994225;28;20100;-69
2023/06/27 10:22:16;;;;;;;3.07;0.77;;;23.40;47.90;;;;;;5010528;28;20038;-69
2023/06/27 10:24:45;;;;;;;6.93;0.80;;;23.30;49.00;;;;;;5010017;28;20405;-69
2023/06/27 10:27:15;;;;;;;5.20;0.90;;;23.30;48.60;;;;;;5011042;28;20042;-69
2023/06/27 10:29:42;;;;;;;4.90;1.00;;;23.50;49.40;;;;;;4994012;28;20585;-69
2023/06/27 10:32:14;;;;;;;3.70;0.43;;;23.60;50.40;;;;;;4992887;28;20464;-69
2023/06/27 10:34:44;;;;;;;4.57;0.80;;;23.60;49.60;;;;;;4985943;28;20111;-69
2023/06/27 10:37:26;;;;;;;5.30;0.73;;;23.60;50.00;;;;;;5005720;28;20137;-70
2023/06/27 10:39:56;;;;;;;5.80;0.70;;;23.50;50.20;;;;;;5007352;28;20080;-69
2023/06/27 10:42:21;;;;;;;4.57;0.83;;;23.30;48.00;;;;;;5009914;28;20053;-69
2023/06/27 10:45:07;;;;;;;4.03;0.70;;;23.10;49.20;;;;;;5010011;28;20058;-69
2023/06/27 10:47:41;;;;;;;6.37;0.70;;;22.80;50.00;;;;;;5008599;28;20113;-69
2023/06/27 10:50:12;;;;;;;6.07;0.73;;;22.60;50.60;;;;;;5001845;28;20129;-69
2023/06/27 10:52:40;;;;;;;3.13;0.50;;;22.60;49.60;;;;;;4987143;28;20086;-69
2023/06/27 10:55:15;;;;;;;3.33;0.50;;;22.80;50.50;;;;;;5005276;28;20041;-69
2023/06/27 10:57:43;;;;;;;4.53;0.47;;;23.10;49.50;;;;;;4997090;28;20038;-69
2023/06/27 11:00:16;;;;;;;6.03;0.73;;;23.30;49.70;;;;;;5006930;28;20042;-69
2023/06/27 11:02:42;;;;;;;3.90;1.17;;;23.20;49.40;;;;;;5004899;28;20030;-69
2023/06/27 11:05:16;;;;;;;4.97;1.37;;;23.20;49.80;;;;;;5005025;28;20506;-70
2023/06/27 11:07:52;;;;;;;4.60;0.73;;;23.20;48.50;;;;;;4995795;28;20038;-69
2023/06/27 11:10:23;;;;;;;5.77;0.90;;;23.20;49.60;;;;;;4995722;28;20493;-70
2023/06/27 11:12:49;;;;;;;4.60;0.90;;;23.20;49.80;;;;;;4995993;28;20397;-70
2023/06/27 11:15:17;;;;;;;3.87;0.70;;;23.30;49.40;;;;;;5008340;28;20038;-70
2023/06/27 11:17:45;;;;;;;4.60;0.70;;;23.40;49.50;;;;;;4985107;28;20103;-70
2023/06/27 11:20:12;;;;;;;3.63;0.70;;;23.20;48.50;;;;;;5011632;28;20044;-70
2023/06/27 11:22:38;;;;;;;4.77;0.70;;;23.20;48.30;;;;;;5012169;28;20042;-70
2023/06/27 11:25:17;;;;;;;4.00;0.43;;;23.30;48.60;;;;;;5000423;28;20108;-70
2023/06/27 11:27:42;;;;;;;2.30;0.63;;;23.40;48.20;;;;;;5011598;28;20052;-70
2023/06/27 11:30:08;;;;;;;4.67;0.70;;;23.40;46.70;;;;;;5011270;28;20042;-70
2023/06/27 11:32:35;;;;;;;3.17;0.50;;;23.30;48.10;;;;;;4995765;28;20529;-70
2023/06/27 11:35:04;;;;;;;2.90;0.80;;;23.20;47.50;;;;;;5011435;28;20052;-71
2023/06/27 11:37:30;;;;;;;2.67;0.73;;;23.10;48.50;;;;;;5007034;28;20041;-70
2023/06/27 11:40:06;;;;;;;3.90;0.70;;;23.10;46.90;;;;;;4995791;28;20080;-70
2023/06/27 11:42:33;;;;;;;3.63;0.40;;;23.10;45.20;;;;;;5009261;28;20072;-70
2023/06/27 11:45:00;;;;;;;2.97;1.00;;;23.10;45.80;;;;;;5011622;28;20041;-69
2023/06/27 11:47:26;;;;;;;4.30;0.40;;;23.20;46.00;;;;;;5011338;28;20094;-70
2023/06/27 11:49:51;;;;;;;4.20;0.67;;;23.20;45.60;;;;;;5007258;28;20046;-70
2023/06/27 11:52:17;;;;;;;2.93;0.67;;;23.10;46.20;;;;;;5010890;28;20449;-69
2023/06/27 11:54:49;;;;;;;4.47;0.60;;;23.30;44.80;;;;;;5011121;28;20096;-69
2023/06/27 11:57:17;;;;;;;2.57;0.57;;;23.20;47.80;;;;;;5008472;28;20537;-70
2023/06/27 11:59:43;;;;;;;3.50;0.60;;;23.00;46.90;;;;;;5004427;28;20046;-69
2023/06/27 12:02:09;;;;;;;3.97;0.60;;;22.90;46.30;;;;;;4998683;28;20030;-70
2023/06/27 12:04:35;;;;;;;2.93;0.43;;;22.80;46.40;;;;;;5009025;28;20533;-70
2023/06/27 12:07:21;;;;;;;4.83;0.70;;;22.80;47.50;;;;;;4986880;28;20169;-70
2023/06/27 12:10:03;;;;;;;5.30;0.60;;;22.90;47.70;;;;;;5005446;28;20488;-70
2023/06/27 12:12:38;;;;;;;5.33;0.93;;;22.90;48.20;;;;;;5011679;28;20050;-69
2023/06/27 12:15:14;;;;;;;2.87;0.60;;;22.70;47.90;;;;;;5011773;28;20049;-70
2023/06/27 12:17:55;;;;;;;2.70;0.53;;;22.80;48.10;;;;;;4995173;28;20037;-70
2023/06/27 12:20:22;;;;;;;4.07;0.50;;;23.00;47.90;;;;;;5011565;28;20390;-70
2023/06/27 12:22:48;;;;;;;3.87;0.57;;;23.10;46.60;;;;;;5010741;28;20091;-70
2023/06/27 12:25:13;;;;;;;2.77;0.60;;;22.90;45.20;;;;;;5009637;28;20456;-70
2023/06/27 12:27:39;;;;;;;3.70;0.73;;;22.70;46.90;;;;;;5010692;28;20136;-70
2023/06/27 12:30:09;;;;;;;2.93;0.50;;;22.70;47.10;;;;;;4990123;28;20088;-70
2023/06/27 12:32:35;;;;;;;3.30;0.60;;;22.60;46.60;;;;;;5001729;28;20081;-70
2023/06/27 12:35:01;;;;;;;4.13;1.00;;;22.70;47.80;;;;;;5009503;28;20052;-70
2023/06/27 12:37:28;;;;;;;4.03;0.80;;;22.90;48.90;;;;;;5013165;28;20076;-70
2023/06/27 12:39:54;;;;;;;3.30;1.00;;;23.00;46.10;;;;;;4993611;28;20048;-70
2023/06/27 12:42:20;;;;;;;3.20;0.50;;;23.00;47.70;;;;;;5010194;28;20042;-70
2023/06/27 12:44:46;;;;;;;3.33;0.50;;;23.10;48.20;;;;;;5003318;28;20046;-69
2023/06/27 12:47:12;;;;;;;5.50;0.67;;;23.30;47.70;;;;;;5009296;28;20038;-70